Time;durP1;ratioP1;P1;durP2;ratioP2;P2;SDS_P1;SDS_P2;PMS_P1;PMS_P2;Temp;Humidity;BMP_temperature;BMP_pressure;BME280_temperature;BME280_humidity;BME280_pressure;Samples;Min_cycle;Max_cycle;Signal;HPM_P1;HPM_P2
2021/06/13 00:02:18;;;;;;;5.07;2.10;;;11.90;99.90;;;;;;5019488;28;20237;-94
2021/06/13 00:04:46;;;;;;;7.07;2.73;;;11.80;99.90;;;;;;5003659;28;20546;-92
2021/06/13 00:07:12;;;;;;;3.87;2.20;;;11.80;99.90;;;;;;5033228;28;20685;-93
2021/06/13 00:09:38;;;;;;;5.27;2.47;;;11.80;99.90;;;;;;5035333;28;20191;-94
2021/06/13 00:12:06;;;;;;;2.50;2.13;;;11.80;99.90;;;;;;5003107;28;20236;-94
2021/06/13 00:14:32;;;;;;;2.77;1.93;;;11.80;99.90;;;;;;5031561;28;20233;-93
2021/06/13 00:16:58;;;;;;;5.50;3.33;;;11.70;99.90;;;;;;5034139;28;20218;-92
2021/06/13 00:19:25;;;;;;;3.40;2.10;;;11.70;99.90;;;;;;5028632;28;20284;-94
2021/06/13 00:21:50;;;;;;;2.47;1.97;;;11.70;99.90;;;;;;5032720;28;20230;-93
2021/06/13 00:24:16;;;;;;;4.33;2.37;;;11.70;99.90;;;;;;5031804;28;20229;-93
2021/06/13 00:26:42;;;;;;;3.90;2.37;;;11.70;99.90;;;;;;5030513;28;20220;-93
2021/06/13 00:29:08;;;;;;;9.80;3.57;;;11.70;99.90;;;;;;5034357;28;20225;-92
2021/06/13 00:31:34;;;;;;;9.10;2.53;;;11.80;99.90;;;;;;4999556;28;20218;-93
2021/06/13 00:33:59;;;;;;;8.43;2.80;;;11.80;99.90;;;;;;5016492;28;20551;-91
2021/06/13 00:36:25;;;;;;;3.97;2.37;;;11.80;99.90;;;;;;5016650;28;20190;-93
2021/06/13 00:38:51;;;;;;;6.97;2.20;;;11.70;99.90;;;;;;5033801;28;20218;-92
2021/06/13 00:41:19;;;;;;;2.97;2.17;;;11.80;99.90;;;;;;5002079;28;20248;-93
2021/06/13 00:43:45;;;;;;;8.03;2.37;;;11.70;99.90;;;;;;5031775;28;20262;-93
2021/06/13 00:46:11;;;;;;;3.40;2.43;;;11.70;99.90;;;;;;5033377;28;20233;-94
2021/06/13 00:48:37;;;;;;;3.70;2.43;;;11.70;99.90;;;;;;5031869;28;20222;-94
2021/06/13 00:51:04;;;;;;;7.33;3.30;;;11.70;99.90;;;;;;5032833;28;20470;-95
2021/06/13 00:53:30;;;;;;;7.60;2.77;;;11.80;99.90;;;;;;5008750;28;20252;-93
2021/06/13 00:55:57;;;;;;;4.20;2.47;;;11.80;99.90;;;;;;5015646;28;20305;-94
2021/06/13 00:58:23;;;;;;;4.67;3.20;;;11.80;99.90;;;;;;5033127;28;20225;-92
2021/06/13 01:00:49;;;;;;;7.10;2.97;;;11.80;99.90;;;;;;5034324;28;20198;-93
2021/06/13 01:03:15;;;;;;;6.07;2.00;;;11.80;99.90;;;;;;5032165;28;20224;-93
2021/06/13 01:05:43;;;;;;;3.57;2.03;;;11.80;99.90;;;;;;5031629;28;20218;-94
2021/06/13 01:08:33;;;;;;;8.30;2.63;;;11.80;99.90;;;;;;5033618;28;20217;-94
2021/06/13 01:11:18;;;;;;;2.33;2.07;;;11.80;99.90;;;;;;5035235;28;20230;-93
2021/06/13 01:14:00;;;;;;;5.97;2.43;;;11.70;99.90;;;;;;5048860;28;20981;-94
2021/06/13 01:16:52;;;;;;;6.03;2.53;;;11.70;99.90;;;;;;5047879;28;20213;-94
2021/06/13 01:19:56;;;;;;;6.43;2.97;;;11.80;99.90;;;;;;5032730;28;20229;-95
2021/06/13 01:22:54;;;;;;;3.73;1.60;;;11.70;99.90;;;;;;5033587;28;20237;-93
2021/06/13 01:25:46;;;;;;;3.40;1.90;;;11.80;99.90;;;;;;5002740;28;20226;-93
2021/06/13 01:28:36;;;;;;;3.90;2.10;;;11.80;99.90;;;;;;5030855;28;20314;-94
2021/06/13 01:31:03;;;;;;;9.77;3.60;;;11.80;99.90;;;;;;5033868;28;20193;-94
2021/06/13 01:33:32;;;;;;;7.33;2.20;;;11.80;99.90;;;;;;5002141;28;20653;-93
2021/06/13 01:36:02;;;;;;;8.90;2.37;;;11.80;99.90;;;;;;5016132;28;20233;-94
2021/06/13 01:38:30;;;;;;;4.10;1.87;;;11.80;99.90;;;;;;5035485;28;20226;-94
2021/06/13 01:41:01;;;;;;;4.63;2.87;;;11.90;99.90;;;;;;5036403;28;20356;-93
2021/06/13 01:43:29;;;;;;;4.33;3.30;;;11.90;99.90;;;;;;5037970;28;20230;-96
2021/06/13 01:45:56;;;;;;;7.60;2.50;;;11.90;99.90;;;;;;5038729;28;20193;-95
2021/06/13 01:48:22;;;;;;;7.50;2.07;;;11.90;99.90;;;;;;5018183;28;20210;-94
2021/06/13 01:50:49;;;;;;;7.80;3.33;;;11.90;99.90;;;;;;5016514;28;20225;-93
2021/06/13 01:53:16;;;;;;;3.47;2.10;;;11.90;99.90;;;;;;5018858;28;20218;-93
2021/06/13 01:55:47;;;;;;;5.17;2.63;;;11.80;99.90;;;;;;5032689;28;20302;-96
2021/06/13 01:58:15;;;;;;;4.33;2.50;;;11.80;99.90;;;;;;5048223;28;20279;-93
2021/06/13 02:00:42;;;;;;;1.73;1.53;;;11.80;99.90;;;;;;5022967;28;20190;-95
2021/06/13 02:03:09;;;;;;;5.30;2.10;;;11.80;99.90;;;;;;5039777;28;20217;-95
2021/06/13 02:05:37;;;;;;;6.83;2.60;;;11.80;99.90;;;;;;5018615;28;20333;-93
2021/06/13 02:08:03;;;;;;;5.93;3.40;;;11.80;99.90;;;;;;5038366;28;20238;-93
2021/06/13 02:10:31;;;;;;;3.73;2.00;;;11.70;99.90;;;;;;5021026;28;20665;-95
2021/06/13 02:12:59;;;;;;;4.13;2.00;;;11.70;99.90;;;;;;5036337;28;20368;-94
2021/06/13 02:15:30;;;;;;;7.53;2.47;;;11.70;99.90;;;;;;5040300;28;20187;-96
2021/06/13 02:17:58;;;;;;;3.20;2.20;;;11.70;99.90;;;;;;5058445;28;20222;-96
2021/06/13 02:20:29;;;;;;;6.27;2.40;;;11.70;99.90;;;;;;5042022;28;20221;-93
2021/06/13 02:22:55;;;;;;;5.77;2.57;;;11.70;99.90;;;;;;5040331;28;20231;-96
2021/06/13 02:25:23;;;;;;;6.80;3.03;;;11.70;99.90;;;;;;5039651;28;20256;-95
2021/06/13 02:27:56;;;;;;;12.93;2.87;;;11.70;99.90;;;;;;5037085;28;20206;-93
2021/06/13 02:30:26;;;;;;;4.17;2.33;;;11.70;99.90;;;;;;5026064;28;20281;-93
2021/06/13 02:32:55;;;;;;;7.87;2.63;;;11.60;99.90;;;;;;5034961;28;20218;-93
2021/06/13 02:35:22;;;;;;;3.50;2.60;;;11.60;99.90;;;;;;5048997;28;20213;-92
2021/06/13 02:37:51;;;;;;;6.73;2.83;;;11.60;99.90;;;;;;5032713;28;20322;-92
2021/06/13 02:40:18;;;;;;;3.23;2.60;;;11.60;99.90;;;;;;5029767;28;20327;-95
2021/06/13 02:42:44;;;;;;;4.87;2.07;;;11.60;99.90;;;;;;5031588;28;20179;-93
2021/06/13 02:45:12;;;;;;;3.93;2.40;;;11.60;99.90;;;;;;5015728;28;20691;-94
2021/06/13 02:47:38;;;;;;;4.60;3.33;;;11.60;99.90;;;;;;5047640;28;20218;-92
2021/06/13 02:50:09;;;;;;;9.33;2.70;;;11.60;99.90;;;;;;5030047;28;20242;-93
2021/06/13 02:53:02;;;;;;;6.30;2.40;;;11.60;99.90;;;;;;5031972;28;20213;-93
2021/06/13 02:55:42;;;;;;;10.23;3.03;;;11.60;99.90;;;;;;5034936;28;20229;-95
2021/06/13 02:58:35;;;;;;;3.07;1.70;;;11.50;99.90;;;;;;5036481;28;20186;-93
2021/06/13 03:01:02;;;;;;;2.47;1.80;;;11.50;99.90;;;;;;5034362;28;20191;-93
2021/06/13 03:03:31;;;;;;;6.53;3.43;;;11.40;99.90;;;;;;5032768;28;20197;-93
2021/06/13 03:05:57;;;;;;;7.40;4.23;;;11.50;99.90;;;;;;5035974;28;20253;-93
2021/06/13 03:08:23;;;;;;;4.80;3.03;;;11.50;99.90;;;;;;5017948;28;20281;-93
2021/06/13 03:10:52;;;;;;;11.27;3.60;;;11.50;99.90;;;;;;5035826;28;20226;-94
2021/06/13 03:13:21;;;;;;;6.20;2.63;;;11.60;99.90;;;;;;5034008;28;20236;-93
2021/06/13 03:15:47;;;;;;;11.10;2.80;;;11.60;99.90;;;;;;5033581;28;20212;-93
2021/06/13 03:18:14;;;;;;;2.50;1.67;;;11.50;99.90;;;;;;5019050;28;20249;-93
2021/06/13 03:20:41;;;;;;;4.63;2.33;;;11.60;99.90;;;;;;5032518;28;20210;-93
2021/06/13 03:23:06;;;;;;;6.40;2.90;;;11.60;99.90;;;;;;5034171;28;20292;-93
2021/06/13 03:25:32;;;;;;;6.60;2.50;;;11.60;99.90;;;;;;5002890;28;20214;-93
2021/06/13 03:27:59;;;;;;;4.53;2.50;;;11.70;99.90;;;;;;5035360;28;20215;-93
2021/06/13 03:30:26;;;;;;;4.63;2.90;;;11.70;99.90;;;;;;5018864;28;20177;-93
2021/06/13 03:32:54;;;;;;;2.80;1.60;;;11.70;99.90;;;;;;5033086;28;20210;-93
2021/06/13 03:35:21;;;;;;;2.73;1.80;;;11.70;99.90;;;;;;5033342;28;20513;-93
2021/06/13 03:37:48;;;;;;;3.57;2.73;;;11.70;99.90;;;;;;5033690;28;20222;-93
2021/06/13 03:40:15;;;;;;;3.77;2.50;;;11.80;99.90;;;;;;5034863;28;20222;-94
2021/06/13 03:42:41;;;;;;;9.27;3.17;;;11.80;99.90;;;;;;5035858;28;20759;-93
2021/06/13 03:45:08;;;;;;;4.07;2.77;;;11.80;99.90;;;;;;5036299;28;20218;-93
2021/06/13 03:47:34;;;;;;;7.17;3.70;;;11.80;99.90;;;;;;5017523;28;20225;-93
2021/06/13 03:50:01;;;;;;;4.77;2.87;;;11.80;99.90;;;;;;5035692;28;20279;-95
2021/06/13 03:52:28;;;;;;;3.30;2.60;;;11.90;99.90;;;;;;5016824;28;20238;-93
2021/06/13 03:54:54;;;;;;;4.97;2.40;;;11.90;99.90;;;;;;5015379;28;20279;-93
2021/06/13 03:57:22;;;;;;;10.33;2.97;;;11.90;99.90;;;;;;5035346;28;20276;-95
2021/06/13 03:59:49;;;;;;;5.20;3.03;;;12.00;99.90;;;;;;5037451;28;20936;-92
2021/06/13 04:02:16;;;;;;;11.37;4.50;;;12.00;99.90;;;;;;5016674;28;20249;-93
2021/06/13 04:04:47;;;;;;;6.27;2.43;;;12.00;99.90;;;;;;5032627;28;20241;-95
2021/06/13 04:07:13;;;;;;;8.20;2.93;;;12.10;99.90;;;;;;5036383;28;20229;-93
2021/06/13 04:09:40;;;;;;;8.23;3.07;;;12.20;99.90;;;;;;5015817;28;20198;-92
2021/06/13 04:12:09;;;;;;;5.70;2.30;;;12.30;99.90;;;;;;5032736;28;20305;-96
2021/06/13 04:14:35;;;;;;;3.13;2.13;;;12.30;99.90;;;;;;5033379;28;20249;-92
2021/06/13 04:17:02;;;;;;;7.23;2.93;;;12.40;99.90;;;;;;5016594;28;20672;-95
2021/06/13 04:19:28;;;;;;;4.20;3.00;;;12.40;99.90;;;;;;5017763;28;20651;-95
2021/06/13 04:21:54;;;;;;;7.53;2.13;;;12.50;99.90;;;;;;5018935;28;20183;-94
2021/06/13 04:24:21;;;;;;;7.57;3.43;;;12.50;99.90;;;;;;5031218;28;20234;-94
2021/06/13 04:26:47;;;;;;;4.60;2.60;;;12.60;99.90;;;;;;5033912;28;20221;-94
2021/06/13 04:29:14;;;;;;;5.30;3.20;;;12.70;99.90;;;;;;5035210;28;20218;-94
2021/06/13 04:31:39;;;;;;;5.73;2.20;;;12.70;99.90;;;;;;5032715;28;20210;-94
2021/06/13 04:34:05;;;;;;;5.27;3.23;;;12.80;99.90;;;;;;5017673;28;20672;-94
2021/06/13 04:36:32;;;;;;;3.53;1.90;;;12.90;99.90;;;;;;5018878;28;20222;-94
2021/06/13 04:38:57;;;;;;;3.37;2.50;;;13.00;99.90;;;;;;5031553;28;20226;-94
2021/06/13 04:41:23;;;;;;;5.43;2.00;;;13.00;99.90;;;;;;5015871;28;20245;-94
2021/06/13 04:43:49;;;;;;;7.03;3.30;;;13.20;99.90;;;;;;5033070;28;20271;-93
2021/06/13 04:46:21;;;;;;;5.90;2.47;;;13.30;99.90;;;;;;5016536;28;20252;-94
2021/06/13 04:48:47;;;;;;;8.23;2.33;;;13.40;99.90;;;;;;5035275;28;20253;-94
2021/06/13 04:51:13;;;;;;;8.00;2.50;;;13.50;99.90;;;;;;5034658;28;20711;-94
2021/06/13 04:54:06;;;;;;;2.93;2.33;;;13.60;99.90;;;;;;5015049;28;20206;-94
2021/06/13 04:56:43;;;;;;;6.13;3.43;;;13.70;99.90;;;;;;5017380;28;20254;-94
2021/06/13 04:59:09;;;;;;;4.97;2.80;;;14.00;99.90;;;;;;5016820;28;21418;-93
2021/06/13 05:01:38;;;;;;;8.73;3.30;;;14.20;99.90;;;;;;5013679;28;20249;-92
2021/06/13 05:04:04;;;;;;;5.90;2.70;;;14.50;99.90;;;;;;5029191;28;20272;-92
2021/06/13 05:06:33;;;;;;;6.23;2.17;;;14.70;99.90;;;;;;5030815;28;20194;-91
2021/06/13 05:08:59;;;;;;;2.50;1.93;;;14.80;99.90;;;;;;5032506;28;21039;-92
2021/06/13 05:11:25;;;;;;;8.67;2.80;;;14.80;99.90;;;;;;5033781;28;20210;-91
2021/06/13 05:13:52;;;;;;;4.20;1.97;;;15.10;99.90;;;;;;5032971;28;20692;-91
2021/06/13 05:16:18;;;;;;;6.30;3.10;;;16.60;99.90;;;;;;5034970;28;20588;-93
2021/06/13 05:18:44;;;;;;;3.73;2.40;;;19.40;99.90;;;;;;5014880;28;20224;-92
2021/06/13 05:21:10;;;;;;;4.97;2.00;;;22.70;99.90;;;;;;5015632;28;20211;-92
2021/06/13 05:23:36;;;;;;;7.43;2.50;;;23.70;99.90;;;;;;5031241;28;20333;-92
2021/06/13 05:26:02;;;;;;;3.80;2.00;;;23.10;99.90;;;;;;4998534;28;20214;-92
2021/06/13 05:28:29;;;;;;;4.73;2.30;;;22.80;99.90;;;;;;5032937;28;20234;-92
2021/06/13 05:30:55;;;;;;;2.43;1.73;;;23.50;99.90;;;;;;5036700;28;20189;-91
2021/06/13 05:33:22;;;;;;;4.63;1.90;;;24.00;99.90;;;;;;5033367;28;20195;-92
2021/06/13 05:35:48;;;;;;;6.77;2.50;;;24.60;99.90;;;;;;5031835;28;21051;-92
2021/06/13 05:38:14;;;;;;;10.40;2.43;;;24.70;99.90;;;;;;5032575;28;20212;-91
2021/06/13 05:40:41;;;;;;;5.80;2.43;;;25.30;99.90;;;;;;5030669;28;20738;-93
2021/06/13 05:43:11;;;;;;;4.80;2.77;;;26.10;99.90;;;;;;5032862;28;20277;-92
2021/06/13 05:45:38;;;;;;;5.63;2.30;;;24.90;99.90;;;;;;5033136;28;20210;-91
2021/06/13 05:48:04;;;;;;;3.87;1.90;;;25.00;99.90;;;;;;5029780;28;20228;-94
2021/06/13 05:50:31;;;;;;;5.83;2.10;;;25.00;99.90;;;;;;5027978;28;20221;-91
2021/06/13 05:52:57;;;;;;;7.43;2.47;;;25.10;99.90;;;;;;4993865;28;20225;-90
2021/06/13 05:55:22;;;;;;;5.50;2.30;;;25.80;99.90;;;;;;5029020;28;20222;-93
2021/06/13 05:57:49;;;;;;;2.95;1.80;;;27.00;99.90;;;;;;5033609;28;20216;-91
2021/06/13 06:00:21;;;;;;;4.43;2.47;;;28.20;99.30;;;;;;5029866;28;20219;-89
2021/06/13 06:02:48;;;;;;;2.17;1.83;;;27.30;99.20;;;;;;5032767;28;20279;-92
2021/06/13 06:05:15;;;;;;;4.13;2.20;;;26.80;99.90;;;;;;5046984;28;20218;-91
2021/06/13 06:07:41;;;;;;;5.13;2.40;;;26.60;99.90;;;;;;5032132;28;20226;-93
2021/06/13 06:10:08;;;;;;;2.60;1.80;;;27.00;99.10;;;;;;5048571;28;20233;-93
2021/06/13 06:12:35;;;;;;;4.78;1.98;;;26.80;99.20;;;;;;5016630;28;20183;-92
2021/06/13 06:15:05;;;;;;;5.18;2.10;;;25.40;99.80;;;;;;5034633;28;20309;-89
2021/06/13 06:17:30;;;;;;;2.55;1.63;;;26.40;99.70;;;;;;5052221;28;20217;-90
2021/06/13 06:19:56;;;;;;;4.00;1.98;;;26.30;99.90;;;;;;5033689;28;20230;-91
2021/06/13 06:22:23;;;;;;;5.63;2.80;;;25.20;99.90;;;;;;5017892;28;20325;-90
2021/06/13 06:24:49;;;;;;;8.35;2.88;;;23.10;99.90;;;;;;5018286;28;20287;-91
2021/06/13 06:27:15;;;;;;;4.05;1.90;;;24.10;99.90;;;;;;5039211;28;20317;-92
2021/06/13 06:29:47;;;;;;;4.32;2.33;;;24.30;99.90;;;;;;5039924;28;20676;-93
2021/06/13 06:32:13;;;;;;;6.40;2.47;;;25.70;99.90;;;;;;5037118;28;20216;-92
2021/06/13 06:34:40;;;;;;;3.72;1.92;;;25.90;99.90;;;;;;5044399;28;20676;-91
2021/06/13 06:37:10;;;;;;;4.38;2.65;;;26.40;99.90;;;;;;5043475;28;20182;-90
2021/06/13 06:39:36;;;;;;;7.57;2.30;;;27.70;99.90;;;;;;5042221;28;20187;-91
2021/06/13 06:42:02;;;;;;;5.93;2.50;;;27.80;97.90;;;;;;5031375;28;20301;-91
2021/06/13 06:44:28;;;;;;;2.55;2.00;;;29.00;97.40;;;;;;5035231;28;20226;-91
2021/06/13 06:47:02;;;;;;;5.30;2.38;;;28.60;97.80;;;;;;5028765;28;20301;-91
2021/06/13 06:49:31;;;;;;;4.13;2.30;;;25.80;98.50;;;;;;5043143;28;20219;-92
2021/06/13 06:52:06;;;;;;;7.22;2.78;;;26.50;99.00;;;;;;5034273;28;20201;-94
2021/06/13 06:54:34;;;;;;;4.55;2.10;;;26.60;99.30;;;;;;5037803;28;20629;-90
2021/06/13 06:57:00;;;;;;;3.67;2.33;;;26.60;99.10;;;;;;5040536;28;20737;-89
2021/06/13 06:59:26;;;;;;;4.07;2.58;;;26.10;99.00;;;;;;5037857;28;20314;-90
2021/06/13 07:01:52;;;;;;;4.35;2.15;;;26.90;98.90;;;;;;5018482;28;20229;-93
2021/06/13 07:04:17;;;;;;;6.72;2.20;;;26.30;99.70;;;;;;5036377;28;20222;-92
2021/06/13 07:06:43;;;;;;;4.18;2.35;;;26.70;98.90;;;;;;5037180;28;20182;-90
2021/06/13 07:09:09;;;;;;;5.65;2.70;;;26.20;99.20;;;;;;5037901;28;20238;-90
2021/06/13 07:11:35;;;;;;;3.70;2.20;;;26.70;99.80;;;;;;5037336;28;21375;-89
2021/06/13 07:14:01;;;;;;;5.43;2.67;;;27.80;98.90;;;;;;5037972;28;20210;-89
2021/06/13 07:16:33;;;;;;;6.03;2.58;;;25.80;99.20;;;;;;5038851;28;20220;-92
2021/06/13 07:18:59;;;;;;;2.47;2.10;;;25.80;99.90;;;;;;5021412;28;20218;-92
2021/06/13 07:21:25;;;;;;;8.60;2.67;;;27.50;99.50;;;;;;5036513;28;20645;-90
2021/06/13 07:23:51;;;;;;;5.20;2.28;;;27.20;99.50;;;;;;5034405;28;20241;-91
2021/06/13 07:26:16;;;;;;;3.95;2.40;;;26.50;99.10;;;;;;5037709;28;20224;-89
2021/06/13 07:28:42;;;;;;;7.20;2.30;;;24.50;99.90;;;;;;5036216;28;20281;-91
2021/06/13 07:31:08;;;;;;;3.97;2.30;;;24.80;99.90;;;;;;5020629;28;20205;-90
2021/06/13 07:33:34;;;;;;;4.70;2.33;;;24.30;99.90;;;;;;5021090;28;20203;-91
2021/06/13 07:36:00;;;;;;;3.55;2.17;;;23.80;99.90;;;;;;5031634;28;20221;-93
2021/06/13 07:38:27;;;;;;;3.45;1.83;;;24.50;99.90;;;;;;5038138;28;20210;-91
2021/06/13 07:40:55;;;;;;;6.22;1.85;;;23.40;99.90;;;;;;5036752;28;20705;-91
2021/06/13 07:43:21;;;;;;;4.03;2.00;;;23.90;99.90;;;;;;5033427;28;20299;-90
2021/06/13 07:45:52;;;;;;;5.13;2.63;;;24.30;99.90;;;;;;5030376;28;20317;-90
2021/06/13 07:48:18;;;;;;;5.28;2.47;;;24.90;99.90;;;;;;5030212;28;20242;-90
2021/06/13 07:50:47;;;;;;;5.50;2.25;;;26.10;99.90;;;;;;5015027;28;20895;-87
2021/06/13 07:53:16;;;;;;;4.25;2.30;;;25.90;99.90;;;;;;5015025;28;20757;-90
2021/06/13 07:55:42;;;;;;;4.00;2.10;;;24.20;99.90;;;;;;5031110;28;20218;-87
2021/06/13 07:58:11;;;;;;;4.28;2.40;;;21.90;99.90;;;;;;5033675;28;20197;-89
2021/06/13 08:00:39;;;;;;;3.10;2.50;;;22.40;99.90;;;;;;5033852;28;20251;-90
2021/06/13 08:03:07;;;;;;;3.10;1.88;;;23.70;99.90;;;;;;5034520;28;20238;-89
2021/06/13 08:05:38;;;;;;;5.05;2.40;;;25.10;99.90;;;;;;5035940;28;20252;-93
2021/06/13 08:08:06;;;;;;;5.30;1.95;;;26.40;99.90;;;;;;5035864;28;20249;-89
2021/06/13 08:10:33;;;;;;;5.70;2.85;;;26.40;98.80;;;;;;5033775;28;20678;-88
2021/06/13 08:12:59;;;;;;;4.90;2.08;;;26.10;99.80;;;;;;5033011;28;20201;-91
2021/06/13 08:15:28;;;;;;;6.03;3.30;;;26.00;99.50;;;;;;5019137;28;20186;-88
2021/06/13 08:17:57;;;;;;;4.90;2.33;;;26.10;98.00;;;;;;5018765;28;20228;-89
2021/06/13 08:20:26;;;;;;;4.82;2.35;;;25.00;99.90;;;;;;5015869;28;20222;-88
2021/06/13 08:22:55;;;;;;;5.00;2.10;;;24.90;99.90;;;;;;5034590;28;20245;-89
2021/06/13 08:25:21;;;;;;;4.30;1.88;;;25.40;99.50;;;;;;5036202;28;21016;-88
2021/06/13 08:27:47;;;;;;;3.40;2.10;;;24.10;99.90;;;;;;5034311;28;20225;-91
2021/06/13 08:30:16;;;;;;;5.05;1.90;;;25.20;99.90;;;;;;5032459;28;20226;-87
2021/06/13 08:32:42;;;;;;;4.95;1.95;;;26.80;99.10;;;;;;5006859;28;20246;-88
2021/06/13 08:35:09;;;;;;;5.72;2.22;;;28.10;99.60;;;;;;5034135;28;20230;-90
2021/06/13 08:37:36;;;;;;;8.13;2.65;;;26.90;99.10;;;;;;5015759;28;20246;-88
2021/06/13 08:40:03;;;;;;;6.50;2.33;;;25.70;99.90;;;;;;5030739;28;20196;-86
2021/06/13 08:42:29;;;;;;;6.18;2.03;;;27.50;98.10;;;;;;5033170;28;20175;-88
2021/06/13 08:44:55;;;;;;;5.15;1.92;;;27.70;96.80;;;;;;5014877;28;20268;-88
2021/06/13 08:47:23;;;;;;;3.05;1.60;;;27.50;97.00;;;;;;5034961;28;20230;-89
2021/06/13 08:49:49;;;;;;;3.72;2.10;;;26.70;97.40;;;;;;5030952;28;20594;-90
2021/06/13 08:52:15;;;;;;;2.13;1.70;;;27.90;98.70;;;;;;5016205;28;21344;-89
2021/06/13 08:54:44;;;;;;;3.70;2.00;;;27.10;97.00;;;;;;5000962;28;20197;-87
2021/06/13 08:57:10;;;;;;;4.10;2.08;;;27.00;97.90;;;;;;5032776;28;20218;-89
2021/06/13 08:59:39;;;;;;;4.00;2.00;;;27.80;99.00;;;;;;5032423;28;20297;-90
2021/06/13 09:02:06;;;;;;;8.52;2.10;;;27.50;96.70;;;;;;5030400;28;20232;-88
2021/06/13 09:04:33;;;;;;;4.53;2.03;;;26.40;97.70;;;;;;4999533;28;20227;-86
2021/06/13 09:06:59;;;;;;;3.63;1.88;;;26.90;96.80;;;;;;5034923;28;20217;-85
2021/06/13 09:09:26;;;;;;;3.33;2.00;;;27.30;97.70;;;;;;5016151;28;20314;-87
2021/06/13 09:12:04;;;;;;;2.88;1.80;;;26.40;97.70;;;;;;5033715;28;20218;-87
2021/06/13 09:14:41;;;;;;;3.13;2.33;;;26.30;98.60;;;;;;5047149;28;20252;-88
2021/06/13 09:17:21;;;;;;;3.35;1.70;;;25.60;98.90;;;;;;5030689;28;20305;-86
2021/06/13 09:20:09;;;;;;;5.28;2.10;;;26.10;99.90;;;;;;5030721;28;20217;-86
2021/06/13 09:22:36;;;;;;;3.30;1.52;;;26.30;99.20;;;;;;5031920;28;20248;-87
2021/06/13 09:25:13;;;;;;;5.60;2.25;;;26.90;96.00;;;;;;5032133;28;20194;-86
2021/06/13 09:28:01;;;;;;;4.78;2.20;;;27.00;98.50;;;;;;5015853;28;20197;-88
2021/06/13 09:30:33;;;;;;;4.82;2.45;;;25.90;98.50;;;;;;5049299;28;20236;-86
2021/06/13 09:33:19;;;;;;;6.18;2.00;;;26.10;98.20;;;;;;5030651;28;20704;-87
2021/06/13 09:35:47;;;;;;;3.03;2.10;;;26.00;99.20;;;;;;5032286;28;20202;-85
2021/06/13 09:38:25;;;;;;;3.33;1.63;;;24.90;98.60;;;;;;5014159;28;20221;-87
2021/06/13 09:41:09;;;;;;;2.45;1.73;;;25.40;99.90;;;;;;5032586;28;20237;-90
2021/06/13 09:43:47;;;;;;;5.80;2.40;;;25.90;98.10;;;;;;5033395;28;20213;-87
2021/06/13 09:46:15;;;;;;;3.33;1.63;;;26.10;98.60;;;;;;5036648;28;20221;-86
2021/06/13 09:48:47;;;;;;;8.38;1.95;;;25.60;99.20;;;;;;5031892;28;20198;-85
2021/06/13 09:51:18;;;;;;;4.35;1.80;;;24.50;99.90;;;;;;5031686;28;20211;-85
2021/06/13 09:53:49;;;;;;;4.80;2.00;;;26.00;98.10;;;;;;5046213;28;20210;-88
2021/06/13 09:56:26;;;;;;;3.08;1.90;;;26.10;97.20;;;;;;5030586;28;21019;-83
2021/06/13 09:59:01;;;;;;;3.67;2.05;;;27.30;98.30;;;;;;5030429;28;20225;-89
2021/06/13 10:01:54;;;;;;;3.70;1.58;;;26.10;97.20;;;;;;5034179;28;20217;-88
2021/06/13 10:04:21;;;;;;;2.75;1.75;;;24.90;96.90;;;;;;5031037;28;20214;-88
2021/06/13 10:06:52;;;;;;;3.38;1.73;;;24.90;98.70;;;;;;5035170;28;20197;-88
2021/06/13 10:09:21;;;;;;;4.30;2.15;;;25.70;99.00;;;;;;5032284;28;20259;-88
2021/06/13 10:11:50;;;;;;;2.92;1.73;;;25.90;99.60;;;;;;5043833;28;20755;-88
2021/06/13 10:14:17;;;;;;;3.33;1.67;;;26.40;98.90;;;;;;5018708;28;20298;-88
2021/06/13 10:16:49;;;;;;;2.05;1.42;;;26.30;96.00;;;;;;5035709;28;20301;-87
2021/06/13 10:19:17;;;;;;;4.00;1.98;;;26.60;97.50;;;;;;5020054;28;20221;-87
2021/06/13 10:21:48;;;;;;;5.10;2.20;;;26.40;97.30;;;;;;5036024;28;20178;-88
2021/06/13 10:24:20;;;;;;;3.05;1.75;;;26.70;99.20;;;;;;5034191;28;20244;-88
2021/06/13 10:26:54;;;;;;;4.68;2.05;;;27.00;97.40;;;;;;5037926;28;20231;-88
2021/06/13 10:29:22;;;;;;;4.82;2.45;;;27.60;98.20;;;;;;5035253;28;20288;-87
2021/06/13 10:31:51;;;;;;;3.08;2.00;;;27.60;97.40;;;;;;5035749;28;20222;-91
2021/06/13 10:34:18;;;;;;;3.22;1.83;;;27.50;98.30;;;;;;5033895;28;20203;-87
2021/06/13 10:36:46;;;;;;;4.25;2.00;;;26.80;99.90;;;;;;5051439;28;20555;-87
2021/06/13 10:39:17;;;;;;;5.18;1.73;;;27.10;99.10;;;;;;5034366;28;20313;-88
2021/06/13 10:41:44;;;;;;;9.02;2.22;;;26.00;99.60;;;;;;5052172;28;20214;-86
2021/06/13 10:44:13;;;;;;;2.20;1.55;;;25.30;99.90;;;;;;5016831;28;20215;-87
2021/06/13 10:46:42;;;;;;;4.70;1.98;;;25.30;99.90;;;;;;5034688;28;20214;-89
2021/06/13 10:49:36;;;;;;;2.80;1.52;;;25.60;99.90;;;;;;5033249;28;20392;-88
2021/06/13 10:52:09;;;;;;;5.65;2.03;;;26.00;99.80;;;;;;5035988;28;20293;-89
2021/06/13 10:54:54;;;;;;;3.88;2.03;;;25.20;99.90;;;;;;5035866;28;20167;-88
2021/06/13 10:57:20;;;;;;;5.00;2.05;;;24.90;99.90;;;;;;5033172;28;20209;-86
2021/06/13 10:59:52;;;;;;;5.22;2.10;;;25.00;99.90;;;;;;5035761;28;20237;-87
2021/06/13 11:02:22;;;;;;;3.08;1.92;;;25.10;99.90;;;;;;5033047;28;20256;-87
2021/06/13 11:04:48;;;;;;;5.22;1.73;;;25.40;99.90;;;;;;5052179;28;20218;-88
2021/06/13 11:07:29;;;;;;;2.58;1.77;;;24.20;99.90;;;;;;5035739;28;20316;-88
2021/06/13 11:10:07;;;;;;;3.72;2.40;;;24.20;99.90;;;;;;5052891;28;20238;-89
2021/06/13 11:12:48;;;;;;;3.30;1.65;;;24.00;99.90;;;;;;5035577;28;20335;-85
2021/06/13 11:15:25;;;;;;;2.40;1.80;;;24.70;99.90;;;;;;5035421;28;20201;-86
2021/06/13 11:17:58;;;;;;;5.20;1.90;;;24.20;99.90;;;;;;5033560;28;20246;-86
2021/06/13 11:20:28;;;;;;;4.07;1.77;;;23.90;99.90;;;;;;5033559;28;20222;-87
2021/06/13 11:22:56;;;;;;;4.78;1.73;;;23.80;99.90;;;;;;5046763;28;20246;-86
2021/06/13 11:25:27;;;;;;;2.40;1.58;;;23.40;99.90;;;;;;5017943;28;20218;-89
2021/06/13 11:28:19;;;;;;;3.45;1.95;;;23.40;99.90;;;;;;5030700;28;20234;-90
2021/06/13 11:30:47;;;;;;;1.80;1.60;;;23.00;99.90;;;;;;5031420;28;20197;-87
2021/06/13 11:33:36;;;;;;;3.95;1.38;;;22.70;99.90;;;;;;5030374;28;20214;-85
2021/06/13 11:36:04;;;;;;;2.10;1.73;;;22.30;99.90;;;;;;5030340;28;20243;-87
2021/06/13 11:38:31;;;;;;;3.13;1.65;;;22.80;99.90;;;;;;5031160;28;20221;-85
2021/06/13 11:41:03;;;;;;;2.97;1.60;;;22.60;99.90;;;;;;5029491;28;20229;-86
2021/06/13 11:43:42;;;;;;;2.97;1.45;;;22.60;99.90;;;;;;5034359;28;20288;-87
2021/06/13 11:46:10;;;;;;;2.80;1.58;;;22.60;99.90;;;;;;5033233;28;20200;-88
2021/06/13 11:48:37;;;;;;;5.20;1.77;;;22.50;99.90;;;;;;5035174;28;20210;-86
2021/06/13 11:51:08;;;;;;;7.20;1.80;;;22.50;99.90;;;;;;5033480;28;20232;-88
2021/06/13 11:53:59;;;;;;;2.50;1.60;;;22.70;99.90;;;;;;5049258;28;20215;-87
2021/06/13 11:56:39;;;;;;;3.30;1.33;;;22.40;99.90;;;;;;5034119;28;20214;-86
2021/06/13 11:59:07;;;;;;;2.83;1.58;;;22.30;99.90;;;;;;5035097;28;20249;-85
2021/06/13 12:01:35;;;;;;;4.28;1.70;;;22.20;99.90;;;;;;5031032;28;20221;-84
2021/06/13 12:04:02;;;;;;;3.42;1.60;;;22.50;99.90;;;;;;5017288;28;20781;-85
2021/06/13 12:06:28;;;;;;;2.92;1.50;;;22.40;99.90;;;;;;5034409;28;20217;-85
2021/06/13 12:08:54;;;;;;;3.78;1.58;;;22.00;99.90;;;;;;5014985;28;20308;-87
2021/06/13 12:11:29;;;;;;;2.03;1.40;;;21.80;99.90;;;;;;5018713;28;20288;-87
2021/06/13 12:13:55;;;;;;;3.27;1.80;;;21.70;99.90;;;;;;5033524;28;20317;-85
2021/06/13 12:16:21;;;;;;;3.47;2.00;;;21.70;99.90;;;;;;5030440;28;20575;-85
2021/06/13 12:19:01;;;;;;;2.27;1.70;;;21.70;99.90;;;;;;5033874;28;20190;-87
2021/06/13 12:21:29;;;;;;;4.68;2.00;;;21.70;99.90;;;;;;5033675;28;20258;-85
2021/06/13 12:24:02;;;;;;;2.67;2.03;;;21.50;99.90;;;;;;5031784;28;20257;-87
2021/06/13 12:29:27;;;;;;;3.93;1.73;;;21.70;99.90;;;;;;5032239;28;20237;-87
2021/06/13 12:31:56;;;;;;;3.60;2.03;;;22.00;99.90;;;;;;5032811;28;20245;-89
2021/06/13 12:34:23;;;;;;;2.90;1.40;;;22.10;99.90;;;;;;5032622;28;20214;-89
2021/06/13 12:36:54;;;;;;;2.87;1.87;;;22.30;99.90;;;;;;5019537;28;21254;-90
2021/06/13 12:39:25;;;;;;;1.83;1.50;;;22.30;99.90;;;;;;5029303;28;20305;-90
2021/06/13 12:41:51;;;;;;;1.50;1.38;;;22.40;99.90;;;;;;5011536;28;20229;-88
2021/06/13 12:44:17;;;;;;;3.73;1.83;;;22.00;99.90;;;;;;5033773;28;20996;-90
2021/06/13 12:46:43;;;;;;;2.63;1.63;;;21.90;99.90;;;;;;5014539;28;20282;-86
2021/06/13 12:49:08;;;;;;;2.70;2.13;;;21.80;99.90;;;;;;5033014;28;20214;-86
2021/06/13 12:51:35;;;;;;;3.37;1.80;;;22.00;99.90;;;;;;5032693;28;20754;-88
2021/06/13 12:54:13;;;;;;;2.87;1.60;;;22.30;99.90;;;;;;5016080;28;20214;-87
2021/06/13 12:56:41;;;;;;;1.90;1.60;;;22.40;99.90;;;;;;5034853;28;20305;-88
2021/06/13 12:59:07;;;;;;;4.93;1.40;;;22.40;99.90;;;;;;5015212;28;20672;-90
2021/06/13 13:01:33;;;;;;;2.63;1.90;;;22.20;99.90;;;;;;5012535;28;20220;-88